sensor_id;sensor_type;location;lat;lon;timestamp;P1;durP1;ratioP1;P2;durP2;ratioP2
38208;SDS011;24016;52.102;11.584;2023-03-01T00:01:00;10.57;;;7.95;;
38208;SDS011;24016;52.102;11.584;2023-03-01T00:03:27;15.43;;;8.88;;
38208;SDS011;24016;52.102;11.584;2023-03-01T00:05:53;12.32;;;8.80;;
38208;SDS011;24016;52.102;11.584;2023-03-01T00:08:18;12.35;;;8.15;;
38208;SDS011;24016;52.102;11.584;2023-03-01T00:10:44;12.13;;;8.35;;
38208;SDS011;24016;52.102;11.584;2023-03-01T00:13:09;12.00;;;8.38;;
38208;SDS011;24016;52.102;11.584;2023-03-01T00:15:37;14.77;;;8.63;;
38208;SDS011;24016;52.102;11.584;2023-03-01T00:18:04;12.35;;;8.75;;
38208;SDS011;24016;52.102;11.584;2023-03-01T00:20:29;12.57;;;8.55;;
38208;SDS011;24016;52.102;11.584;2023-03-01T00:22:55;11.93;;;8.23;;
38208;SDS011;24016;52.102;11.584;2023-03-01T00:25:20;12.20;;;8.63;;
38208;SDS011;24016;52.102;11.584;2023-03-01T00:27:46;11.27;;;7.60;;
38208;SDS011;24016;52.102;11.584;2023-03-01T00:30:14;13.50;;;8.10;;
38208;SDS011;24016;52.102;11.584;2023-03-01T00:32:39;11.50;;;8.07;;
38208;SDS011;24016;52.102;11.584;2023-03-01T00:35:05;11.25;;;8.02;;
38208;SDS011;24016;52.102;11.584;2023-03-01T00:37:31;13.70;;;8.27;;
38208;SDS011;24016;52.102;11.584;2023-03-01T00:39:56;11.90;;;8.73;;
38208;SDS011;24016;52.102;11.584;2023-03-01T00:42:22;11.13;;;8.05;;
38208;SDS011;24016;52.102;11.584;2023-03-01T00:44:48;12.05;;;7.97;;
38208;SDS011;24016;52.102;11.584;2023-03-01T00:47:13;12.43;;;7.50;;
38208;SDS011;24016;52.102;11.584;2023-03-01T00:49:39;10.77;;;7.93;;
38208;SDS011;24016;52.102;11.584;2023-03-01T00:52:05;11.25;;;8.00;;
38208;SDS011;24016;52.102;11.584;2023-03-01T00:54:30;10.18;;;7.80;;
38208;SDS011;24016;52.102;11.584;2023-03-01T00:56:56;13.25;;;8.30;;
38208;SDS011;24016;52.102;11.584;2023-03-01T00:59:22;15.20;;;8.82;;
38208;SDS011;24016;52.102;11.584;2023-03-01T01:01:47;12.95;;;8.13;;
38208;SDS011;24016;52.102;11.584;2023-03-01T01:04:13;13.07;;;7.88;;
38208;SDS011;24016;52.102;11.584;2023-03-01T01:06:40;11.10;;;8.20;;
38208;SDS011;24016;52.102;11.584;2023-03-01T01:09:12;11.05;;;7.78;;
38208;SDS011;24016;52.102;11.584;2023-03-01T01:11:46;9.95;;;6.90;;
38208;SDS011;24016;52.102;11.584;2023-03-01T01:14:13;13.63;;;7.75;;
38208;SDS011;24016;52.102;11.584;2023-03-01T01:16:38;10.80;;;7.53;;
38208;SDS011;24016;52.102;11.584;2023-03-01T01:19:04;11.77;;;6.78;;
38208;SDS011;24016;52.102;11.584;2023-03-01T01:21:30;11.13;;;7.05;;
38208;SDS011;24016;52.102;11.584;2023-03-01T01:23:56;11.10;;;7.60;;
38208;SDS011;24016;52.102;11.584;2023-03-01T01:26:23;10.75;;;7.65;;
38208;SDS011;24016;52.102;11.584;2023-03-01T01:31:19;8.25;;;6.38;;
38208;SDS011;24016;52.102;11.584;2023-03-01T01:33:48;11.27;;;8.10;;
38208;SDS011;24016;52.102;11.584;2023-03-01T01:36:14;16.05;;;9.80;;
38208;SDS011;24016;52.102;11.584;2023-03-01T01:38:41;16.50;;;9.85;;
38208;SDS011;24016;52.102;11.584;2023-03-01T01:41:07;17.00;;;9.63;;
38208;SDS011;24016;52.102;11.584;2023-03-01T01:43:37;17.30;;;10.63;;
38208;SDS011;24016;52.102;11.584;2023-03-01T01:49:02;15.07;;;9.63;;
38208;SDS011;24016;52.102;11.584;2023-03-01T01:51:33;14.18;;;9.25;;
38208;SDS011;24016;52.102;11.584;2023-03-01T01:54:10;13.95;;;9.50;;
38208;SDS011;24016;52.102;11.584;2023-03-01T01:56:39;14.75;;;8.85;;
38208;SDS011;24016;52.102;11.584;2023-03-01T01:59:09;15.02;;;10.20;;
38208;SDS011;24016;52.102;11.584;2023-03-01T02:01:34;18.52;;;9.27;;
38208;SDS011;24016;52.102;11.584;2023-03-01T02:04:00;11.38;;;8.43;;
38208;SDS011;24016;52.102;11.584;2023-03-01T02:06:27;13.43;;;9.23;;
38208;SDS011;24016;52.102;11.584;2023-03-01T02:09:08;12.63;;;8.27;;
38208;SDS011;24016;52.102;11.584;2023-03-01T02:11:38;14.60;;;8.70;;
38208;SDS011;24016;52.102;11.584;2023-03-01T02:14:04;13.00;;;7.82;;
38208;SDS011;24016;52.102;11.584;2023-03-01T02:16:30;9.70;;;7.43;;
38208;SDS011;24016;52.102;11.584;2023-03-01T02:18:55;10.73;;;7.45;;
38208;SDS011;24016;52.102;11.584;2023-03-01T02:21:42;11.63;;;8.10;;
38208;SDS011;24016;52.102;11.584;2023-03-01T02:24:26;10.25;;;7.18;;
38208;SDS011;24016;52.102;11.584;2023-03-01T02:27:19;10.40;;;7.40;;
38208;SDS011;24016;52.102;11.584;2023-03-01T02:29:51;10.23;;;7.13;;
38208;SDS011;24016;52.102;11.584;2023-03-01T02:32:16;9.52;;;6.90;;
38208;SDS011;24016;52.102;11.584;2023-03-01T02:34:49;10.38;;;7.45;;
38208;SDS011;24016;52.102;11.584;2023-03-01T02:37:21;9.73;;;6.93;;
38208;SDS011;24016;52.102;11.584;2023-03-01T02:40:09;9.60;;;7.22;;
38208;SDS011;24016;52.102;11.584;2023-03-01T02:45:12;11.32;;;5.68;;
38208;SDS011;24016;52.102;11.584;2023-03-01T02:47:37;12.65;;;7.03;;
38208;SDS011;24016;52.102;11.584;2023-03-01T02:50:09;13.20;;;7.18;;
38208;SDS011;24016;52.102;11.584;2023-03-01T02:55:50;10.35;;;7.47;;
38208;SDS011;24016;52.102;11.584;2023-03-01T02:58:16;9.77;;;6.93;;
38208;SDS011;24016;52.102;11.584;2023-03-01T03:00:42;11.13;;;7.22;;
38208;SDS011;24016;52.102;11.584;2023-03-01T03:03:12;10.77;;;7.53;;
38208;SDS011;24016;52.102;11.584;2023-03-01T03:05:39;12.02;;;7.55;;
38208;SDS011;24016;52.102;11.584;2023-03-01T03:08:05;11.73;;;7.45;;
38208;SDS011;24016;52.102;11.584;2023-03-01T03:10:33;13.15;;;8.30;;
38208;SDS011;24016;52.102;11.584;2023-03-01T03:13:05;14.23;;;8.27;;
38208;SDS011;24016;52.102;11.584;2023-03-01T03:15:33;11.48;;;7.63;;
38208;SDS011;24016;52.102;11.584;2023-03-01T03:18:04;10.02;;;7.05;;
38208;SDS011;24016;52.102;11.584;2023-03-01T03:20:32;11.27;;;7.10;;
38208;SDS011;24016;52.102;11.584;2023-03-01T03:22:58;10.80;;;7.63;;
38208;SDS011;24016;52.102;11.584;2023-03-01T03:25:24;15.15;;;8.02;;
38208;SDS011;24016;52.102;11.584;2023-03-01T03:27:51;11.85;;;7.97;;
38208;SDS011;24016;52.102;11.584;2023-03-01T03:30:30;13.07;;;7.53;;
38208;SDS011;24016;52.102;11.584;2023-03-01T03:32:56;11.88;;;7.53;;
38208;SDS011;24016;52.102;11.584;2023-03-01T03:35:25;16.02;;;8.38;;
38208;SDS011;24016;52.102;11.584;2023-03-01T03:40:32;9.73;;;6.72;;
38208;SDS011;24016;52.102;11.584;2023-03-01T03:43:00;13.27;;;8.07;;
38208;SDS011;24016;52.102;11.584;2023-03-01T03:45:26;11.95;;;7.38;;
38208;SDS011;24016;52.102;11.584;2023-03-01T03:47:51;12.25;;;7.57;;
38208;SDS011;24016;52.102;11.584;2023-03-01T03:50:17;11.77;;;7.65;;
38208;SDS011;24016;52.102;11.584;2023-03-01T03:52:43;13.73;;;8.00;;
38208;SDS011;24016;52.102;11.584;2023-03-01T03:55:09;13.60;;;7.82;;
38208;SDS011;24016;52.102;11.584;2023-03-01T03:57:37;14.15;;;8.10;;
38208;SDS011;24016;52.102;11.584;2023-03-01T04:00:04;11.10;;;8.07;;
38208;SDS011;24016;52.102;11.584;2023-03-01T04:02:37;11.90;;;8.20;;
38208;SDS011;24016;52.102;11.584;2023-03-01T04:05:04;12.60;;;7.75;;
38208;SDS011;24016;52.102;11.584;2023-03-01T04:07:29;10.48;;;7.57;;
38208;SDS011;24016;52.102;11.584;2023-03-01T04:09:55;13.88;;;7.80;;
38208;SDS011;24016;52.102;11.584;2023-03-01T04:12:20;15.57;;;8.50;;
38208;SDS011;24016;52.102;11.584;2023-03-01T04:14:47;13.95;;;8.30;;
38208;SDS011;24016;52.102;11.584;2023-03-01T04:17:13;13.93;;;8.10;;
38208;SDS011;24016;52.102;11.584;2023-03-01T04:19:38;10.85;;;8.20;;
38208;SDS011;24016;52.102;11.584;2023-03-01T04:22:04;13.27;;;7.95;;
38208;SDS011;24016;52.102;11.584;2023-03-01T04:24:34;10.85;;;7.75;;
38208;SDS011;24016;52.102;11.584;2023-03-01T04:27:00;12.63;;;7.78;;
38208;SDS011;24016;52.102;11.584;2023-03-01T04:29:26;10.95;;;8.05;;
38208;SDS011;24016;52.102;11.584;2023-03-01T04:31:51;12.10;;;8.30;;
38208;SDS011;24016;52.102;11.584;2023-03-01T04:34:17;13.23;;;8.90;;
38208;SDS011;24016;52.102;11.584;2023-03-01T04:36:43;12.68;;;7.60;;
38208;SDS011;24016;52.102;11.584;2023-03-01T04:39:09;11.93;;;7.78;;
38208;SDS011;24016;52.102;11.584;2023-03-01T04:41:38;14.73;;;8.20;;
38208;SDS011;24016;52.102;11.584;2023-03-01T04:44:04;12.63;;;8.07;;
38208;SDS011;24016;52.102;11.584;2023-03-01T04:46:30;14.63;;;7.93;;
38208;SDS011;24016;52.102;11.584;2023-03-01T04:48:55;12.35;;;7.53;;
38208;SDS011;24016;52.102;11.584;2023-03-01T04:51:21;12.05;;;8.20;;
38208;SDS011;24016;52.102;11.584;2023-03-01T04:53:46;12.02;;;7.80;;
38208;SDS011;24016;52.102;11.584;2023-03-01T04:56:12;10.23;;;7.45;;
38208;SDS011;24016;52.102;11.584;2023-03-01T04:58:41;9.70;;;7.65;;
38208;SDS011;24016;52.102;11.584;2023-03-01T05:01:15;23.73;;;8.77;;
38208;SDS011;24016;52.102;11.584;2023-03-01T05:03:43;10.15;;;7.65;;
38208;SDS011;24016;52.102;11.584;2023-03-01T05:06:09;13.23;;;8.27;;
38208;SDS011;24016;52.102;11.584;2023-03-01T05:08:36;12.18;;;7.95;;
38208;SDS011;24016;52.102;11.584;2023-03-01T05:11:02;13.85;;;7.78;;
38208;SDS011;24016;52.102;11.584;2023-03-01T05:13:28;10.98;;;7.97;;
38208;SDS011;24016;52.102;11.584;2023-03-01T05:15:55;12.43;;;7.72;;
38208;SDS011;24016;52.102;11.584;2023-03-01T05:20:54;13.32;;;7.35;;
38208;SDS011;24016;52.102;11.584;2023-03-01T05:23:21;17.05;;;7.97;;
38208;SDS011;24016;52.102;11.584;2023-03-01T05:25:47;18.02;;;8.60;;
38208;SDS011;24016;52.102;11.584;2023-03-01T05:28:14;14.10;;;8.20;;
38208;SDS011;24016;52.102;11.584;2023-03-01T05:30:40;18.05;;;8.93;;
38208;SDS011;24016;52.102;11.584;2023-03-01T05:33:06;14.18;;;7.53;;
38208;SDS011;24016;52.102;11.584;2023-03-01T05:35:38;13.52;;;7.50;;
38208;SDS011;24016;52.102;11.584;2023-03-01T05:38:05;14.93;;;7.72;;
38208;SDS011;24016;52.102;11.584;2023-03-01T05:40:32;11.88;;;8.13;;
38208;SDS011;24016;52.102;11.584;2023-03-01T05:42:58;17.92;;;9.07;;
38208;SDS011;24016;52.102;11.584;2023-03-01T05:45:25;11.32;;;8.52;;
38208;SDS011;24016;52.102;11.584;2023-03-01T05:47:51;13.82;;;8.60;;
38208;SDS011;24016;52.102;11.584;2023-03-01T05:50:23;13.13;;;8.98;;
38208;SDS011;24016;52.102;11.584;2023-03-01T05:52:51;12.52;;;8.00;;
38208;SDS011;24016;52.102;11.584;2023-03-01T05:55:27;16.48;;;8.68;;
38208;SDS011;24016;52.102;11.584;2023-03-01T05:57:55;11.52;;;7.53;;
38208;SDS011;24016;52.102;11.584;2023-03-01T06:00:22;13.55;;;8.43;;
38208;SDS011;24016;52.102;11.584;2023-03-01T06:02:48;18.02;;;8.93;;
38208;SDS011;24016;52.102;11.584;2023-03-01T06:05:14;20.58;;;8.43;;
38208;SDS011;24016;52.102;11.584;2023-03-01T06:07:40;14.82;;;8.15;;
38208;SDS011;24016;52.102;11.584;2023-03-01T06:10:06;13.48;;;8.13;;
38208;SDS011;24016;52.102;11.584;2023-03-01T06:12:34;12.63;;;8.13;;
38208;SDS011;24016;52.102;11.584;2023-03-01T06:15:00;17.50;;;8.88;;
38208;SDS011;24016;52.102;11.584;2023-03-01T06:17:28;14.60;;;8.15;;
38208;SDS011;24016;52.102;11.584;2023-03-01T06:19:54;11.60;;;7.53;;
38208;SDS011;24016;52.102;11.584;2023-03-01T06:22:20;12.52;;;8.02;;
38208;SDS011;24016;52.102;11.584;2023-03-01T06:24:45;22.30;;;8.20;;
38208;SDS011;24016;52.102;11.584;2023-03-01T06:27:11;13.13;;;8.40;;
38208;SDS011;24016;52.102;11.584;2023-03-01T06:29:36;15.50;;;8.77;;
38208;SDS011;24016;52.102;11.584;2023-03-01T06:32:02;12.10;;;8.18;;
38208;SDS011;24016;52.102;11.584;2023-03-01T06:34:28;12.55;;;8.35;;
38208;SDS011;24016;52.102;11.584;2023-03-01T06:36:54;13.57;;;8.45;;
38208;SDS011;24016;52.102;11.584;2023-03-01T06:39:19;14.40;;;8.32;;
38208;SDS011;24016;52.102;11.584;2023-03-01T06:41:45;13.25;;;8.63;;
38208;SDS011;24016;52.102;11.584;2023-03-01T06:44:11;12.88;;;7.97;;
38208;SDS011;24016;52.102;11.584;2023-03-01T06:46:36;10.40;;;7.57;;
38208;SDS011;24016;52.102;11.584;2023-03-01T06:49:03;11.20;;;7.28;;
38208;SDS011;24016;52.102;11.584;2023-03-01T06:51:32;15.13;;;7.60;;
38208;SDS011;24016;52.102;11.584;2023-03-01T06:53:58;9.80;;;6.03;;
38208;SDS011;24016;52.102;11.584;2023-03-01T06:56:23;9.00;;;6.25;;
38208;SDS011;24016;52.102;11.584;2023-03-01T06:58:49;10.85;;;5.72;;
38208;SDS011;24016;52.102;11.584;2023-03-01T07:01:14;8.65;;;5.75;;
38208;SDS011;24016;52.102;11.584;2023-03-01T07:03:40;9.05;;;5.55;;
38208;SDS011;24016;52.102;11.584;2023-03-01T07:06:09;10.32;;;5.55;;
38208;SDS011;24016;52.102;11.584;2023-03-01T07:08:34;8.98;;;5.20;;
38208;SDS011;24016;52.102;11.584;2023-03-01T07:11:00;8.65;;;5.22;;
38208;SDS011;24016;52.102;11.584;2023-03-01T07:13:27;7.68;;;5.10;;
38208;SDS011;24016;52.102;11.584;2023-03-01T07:15:53;8.00;;;5.18;;
38208;SDS011;24016;52.102;11.584;2023-03-01T07:18:18;11.25;;;5.82;;
38208;SDS011;24016;52.102;11.584;2023-03-01T07:20:44;9.48;;;5.72;;
38208;SDS011;24016;52.102;11.584;2023-03-01T07:23:10;16.52;;;7.22;;
38208;SDS011;24016;52.102;11.584;2023-03-01T07:25:35;16.70;;;7.15;;
38208;SDS011;24016;52.102;11.584;2023-03-01T07:28:01;10.45;;;7.05;;
38208;SDS011;24016;52.102;11.584;2023-03-01T07:30:26;9.73;;;6.65;;
38208;SDS011;24016;52.102;11.584;2023-03-01T07:32:53;9.20;;;5.88;;
38208;SDS011;24016;52.102;11.584;2023-03-01T07:35:20;9.05;;;5.78;;
38208;SDS011;24016;52.102;11.584;2023-03-01T07:37:45;9.18;;;6.40;;
38208;SDS011;24016;52.102;11.584;2023-03-01T07:40:11;12.98;;;6.10;;
38208;SDS011;24016;52.102;11.584;2023-03-01T07:42:37;17.25;;;5.88;;
38208;SDS011;24016;52.102;11.584;2023-03-01T07:45:04;12.75;;;6.60;;
38208;SDS011;24016;52.102;11.584;2023-03-01T07:47:30;9.98;;;5.05;;
38208;SDS011;24016;52.102;11.584;2023-03-01T07:49:56;10.10;;;5.80;;
38208;SDS011;24016;52.102;11.584;2023-03-01T07:52:22;10.80;;;5.22;;
38208;SDS011;24016;52.102;11.584;2023-03-01T07:54:47;8.95;;;5.90;;
38208;SDS011;24016;52.102;11.584;2023-03-01T07:57:13;9.38;;;5.95;;
38208;SDS011;24016;52.102;11.584;2023-03-01T07:59:38;8.65;;;5.50;;
38208;SDS011;24016;52.102;11.584;2023-03-01T08:02:05;7.68;;;5.13;;
38208;SDS011;24016;52.102;11.584;2023-03-01T08:04:31;8.95;;;5.45;;
38208;SDS011;24016;52.102;11.584;2023-03-01T08:06:57;9.30;;;5.93;;
38208;SDS011;24016;52.102;11.584;2023-03-01T08:09:23;9.48;;;6.05;;
38208;SDS011;24016;52.102;11.584;2023-03-01T08:11:48;7.97;;;5.57;;
38208;SDS011;24016;52.102;11.584;2023-03-01T08:14:14;8.57;;;6.20;;
38208;SDS011;24016;52.102;11.584;2023-03-01T08:16:39;8.40;;;5.75;;
38208;SDS011;24016;52.102;11.584;2023-03-01T08:19:06;8.95;;;6.15;;
38208;SDS011;24016;52.102;11.584;2023-03-01T08:21:32;14.18;;;7.03;;
38208;SDS011;24016;52.102;11.584;2023-03-01T08:23:59;11.85;;;6.53;;
38208;SDS011;24016;52.102;11.584;2023-03-01T08:26:26;8.70;;;6.10;;
38208;SDS011;24016;52.102;11.584;2023-03-01T08:28:51;8.75;;;5.97;;
38208;SDS011;24016;52.102;11.584;2023-03-01T08:33:42;12.57;;;5.93;;
38208;SDS011;24016;52.102;11.584;2023-03-01T08:36:08;12.23;;;5.78;;
38208;SDS011;24016;52.102;11.584;2023-03-01T08:38:34;7.88;;;5.72;;
38208;SDS011;24016;52.102;11.584;2023-03-01T08:41:00;9.70;;;5.55;;
38208;SDS011;24016;52.102;11.584;2023-03-01T08:43:27;8.43;;;5.75;;
38208;SDS011;24016;52.102;11.584;2023-03-01T08:45:52;8.68;;;4.93;;
38208;SDS011;24016;52.102;11.584;2023-03-01T08:48:18;12.27;;;6.28;;
38208;SDS011;24016;52.102;11.584;2023-03-01T08:50:43;9.25;;;6.22;;
38208;SDS011;24016;52.102;11.584;2023-03-01T08:53:09;10.30;;;6.32;;
38208;SDS011;24016;52.102;11.584;2023-03-01T08:55:34;12.48;;;6.18;;
38208;SDS011;24016;52.102;11.584;2023-03-01T08:58:00;8.10;;;5.10;;
38208;SDS011;24016;52.102;11.584;2023-03-01T09:00:25;12.18;;;5.93;;
38208;SDS011;24016;52.102;11.584;2023-03-01T09:02:51;9.73;;;5.63;;
38208;SDS011;24016;52.102;11.584;2023-03-01T09:05:16;10.77;;;5.65;;
38208;SDS011;24016;52.102;11.584;2023-03-01T09:07:42;9.77;;;5.80;;
38208;SDS011;24016;52.102;11.584;2023-03-01T09:10:08;14.80;;;6.00;;
38208;SDS011;24016;52.102;11.584;2023-03-01T09:12:34;9.85;;;5.95;;
38208;SDS011;24016;52.102;11.584;2023-03-01T09:14:59;11.15;;;5.53;;
38208;SDS011;24016;52.102;11.584;2023-03-01T09:17:25;10.93;;;4.93;;
38208;SDS011;24016;52.102;11.584;2023-03-01T09:19:50;7.35;;;4.82;;
38208;SDS011;24016;52.102;11.584;2023-03-01T09:22:16;9.85;;;5.45;;
38208;SDS011;24016;52.102;11.584;2023-03-01T09:24:41;7.28;;;5.28;;
38208;SDS011;24016;52.102;11.584;2023-03-01T09:27:07;9.18;;;5.60;;
38208;SDS011;24016;52.102;11.584;2023-03-01T09:29:33;9.10;;;5.25;;
38208;SDS011;24016;52.102;11.584;2023-03-01T09:32:02;12.52;;;5.40;;
38208;SDS011;24016;52.102;11.584;2023-03-01T09:34:27;6.82;;;4.40;;
38208;SDS011;24016;52.102;11.584;2023-03-01T09:36:53;8.77;;;5.03;;
38208;SDS011;24016;52.102;11.584;2023-03-01T09:39:18;8.45;;;4.72;;
38208;SDS011;24016;52.102;11.584;2023-03-01T09:41:46;6.80;;;4.72;;
38208;SDS011;24016;52.102;11.584;2023-03-01T09:47:05;9.57;;;4.47;;
38208;SDS011;24016;52.102;11.584;2023-03-01T09:49:35;7.13;;;4.85;;
38208;SDS011;24016;52.102;11.584;2023-03-01T09:54:54;8.15;;;4.40;;
38208;SDS011;24016;52.102;11.584;2023-03-01T09:57:25;9.88;;;4.72;;
38208;SDS011;24016;52.102;11.584;2023-03-01T10:00:26;8.90;;;4.68;;
38208;SDS011;24016;52.102;11.584;2023-03-01T10:04:04;9.35;;;4.57;;
38208;SDS011;24016;52.102;11.584;2023-03-01T10:08:41;5.75;;;3.80;;
38208;SDS011;24016;52.102;11.584;2023-03-01T10:11:21;6.07;;;4.20;;
38208;SDS011;24016;52.102;11.584;2023-03-01T10:16:29;6.53;;;4.43;;
38208;SDS011;24016;52.102;11.584;2023-03-01T10:19:05;9.60;;;4.28;;
38208;SDS011;24016;52.102;11.584;2023-03-01T10:21:35;7.40;;;4.60;;
38208;SDS011;24016;52.102;11.584;2023-03-01T10:24:09;6.50;;;4.55;;
38208;SDS011;24016;52.102;11.584;2023-03-01T10:26:40;6.72;;;4.40;;
38208;SDS011;24016;52.102;11.584;2023-03-01T10:29:16;7.50;;;4.60;;
38208;SDS011;24016;52.102;11.584;2023-03-01T10:34:17;7.38;;;4.57;;
38208;SDS011;24016;52.102;11.584;2023-03-01T10:36:48;8.57;;;4.32;;
38208;SDS011;24016;52.102;11.584;2023-03-01T10:39:22;7.38;;;4.53;;
38208;SDS011;24016;52.102;11.584;2023-03-01T10:42:03;7.90;;;4.55;;
38208;SDS011;24016;52.102;11.584;2023-03-01T10:45:11;8.20;;;4.43;;
38208;SDS011;24016;52.102;11.584;2023-03-01T10:47:23;7.28;;;4.60;;
38208;SDS011;24016;52.102;11.584;2023-03-01T10:50:04;5.95;;;4.10;;
38208;SDS011;24016;52.102;11.584;2023-03-01T10:52:42;7.15;;;4.30;;
38208;SDS011;24016;52.102;11.584;2023-03-01T10:55:26;6.35;;;4.35;;
38208;SDS011;24016;52.102;11.584;2023-03-01T10:58:15;5.78;;;4.35;;
38208;SDS011;24016;52.102;11.584;2023-03-01T11:00:46;6.80;;;4.28;;
38208;SDS011;24016;52.102;11.584;2023-03-01T11:03:19;8.40;;;4.72;;
38208;SDS011;24016;52.102;11.584;2023-03-01T11:06:12;9.57;;;4.28;;
38208;SDS011;24016;52.102;11.584;2023-03-01T11:08:47;7.60;;;4.35;;
38208;SDS011;24016;52.102;11.584;2023-03-01T11:11:17;7.97;;;4.07;;
38208;SDS011;24016;52.102;11.584;2023-03-01T11:13:56;7.20;;;4.63;;
38208;SDS011;24016;52.102;11.584;2023-03-01T11:18:59;7.03;;;4.55;;
38208;SDS011;24016;52.102;11.584;2023-03-01T11:21:35;6.13;;;3.95;;
38208;SDS011;24016;52.102;11.584;2023-03-01T11:24:06;6.28;;;4.25;;
38208;SDS011;24016;52.102;11.584;2023-03-01T11:26:37;7.40;;;4.43;;
38208;SDS011;24016;52.102;11.584;2023-03-01T11:29:12;7.00;;;4.47;;
38208;SDS011;24016;52.102;11.584;2023-03-01T11:31:46;6.82;;;4.10;;
38208;SDS011;24016;52.102;11.584;2023-03-01T11:34:19;6.13;;;4.50;;
38208;SDS011;24016;52.102;11.584;2023-03-01T11:37:02;6.38;;;4.43;;
38208;SDS011;24016;52.102;11.584;2023-03-01T11:39:36;6.97;;;3.95;;
38208;SDS011;24016;52.102;11.584;2023-03-01T11:42:06;8.00;;;3.95;;
38208;SDS011;24016;52.102;11.584;2023-03-01T11:44:46;7.40;;;4.38;;
38208;SDS011;24016;52.102;11.584;2023-03-01T11:50:13;7.18;;;4.55;;
38208;SDS011;24016;52.102;11.584;2023-03-01T11:52:51;8.45;;;4.90;;
38208;SDS011;24016;52.102;11.584;2023-03-01T11:55:52;6.32;;;4.50;;
38208;SDS011;24016;52.102;11.584;2023-03-01T12:07:18;9.10;;;4.45;;
38208;SDS011;24016;52.102;11.584;2023-03-01T12:12:45;6.03;;;4.38;;
38208;SDS011;24016;52.102;11.584;2023-03-01T12:15:26;4.97;;;3.75;;
38208;SDS011;24016;52.102;11.584;2023-03-01T12:18:25;6.20;;;3.90;;
38208;SDS011;24016;52.102;11.584;2023-03-01T12:23:56;6.55;;;3.92;;
38208;SDS011;24016;52.102;11.584;2023-03-01T12:29:21;7.18;;;4.20;;
38208;SDS011;24016;52.102;11.584;2023-03-01T12:32:01;5.95;;;4.20;;
38208;SDS011;24016;52.102;11.584;2023-03-01T12:40:23;4.78;;;3.45;;
38208;SDS011;24016;52.102;11.584;2023-03-01T12:42:59;6.43;;;3.58;;
38208;SDS011;24016;52.102;11.584;2023-03-01T12:45:48;4.57;;;3.30;;
38208;SDS011;24016;52.102;11.584;2023-03-01T12:51:17;6.00;;;3.87;;
38208;SDS011;24016;52.102;11.584;2023-03-01T12:53:48;6.90;;;4.28;;
38208;SDS011;24016;52.102;11.584;2023-03-01T12:56:25;7.30;;;3.75;;
38208;SDS011;24016;52.102;11.584;2023-03-01T12:59:07;5.95;;;3.85;;
38208;SDS011;24016;52.102;11.584;2023-03-01T13:04:33;7.30;;;3.47;;
38208;SDS011;24016;52.102;11.584;2023-03-01T13:09:51;6.72;;;3.97;;
38208;SDS011;24016;52.102;11.584;2023-03-01T13:17:46;5.35;;;3.70;;
38208;SDS011;24016;52.102;11.584;2023-03-01T13:20:17;6.10;;;3.67;;
38208;SDS011;24016;52.102;11.584;2023-03-01T13:22:47;5.38;;;4.00;;
38208;SDS011;24016;52.102;11.584;2023-03-01T13:25:34;5.80;;;3.80;;
38208;SDS011;24016;52.102;11.584;2023-03-01T13:30:56;6.45;;;3.83;;
38208;SDS011;24016;52.102;11.584;2023-03-01T13:35:50;7.57;;;4.05;;
38208;SDS011;24016;52.102;11.584;2023-03-01T13:38:36;6.47;;;3.80;;
38208;SDS011;24016;52.102;11.584;2023-03-01T13:46:48;5.20;;;3.47;;
38208;SDS011;24016;52.102;11.584;2023-03-01T13:49:16;5.68;;;3.60;;
38208;SDS011;24016;52.102;11.584;2023-03-01T13:51:46;9.85;;;3.58;;
38208;SDS011;24016;52.102;11.584;2023-03-01T13:54:16;5.45;;;3.28;;
38208;SDS011;24016;52.102;11.584;2023-03-01T13:56:51;5.30;;;3.13;;
38208;SDS011;24016;52.102;11.584;2023-03-01T13:59:21;5.60;;;3.10;;
38208;SDS011;24016;52.102;11.584;2023-03-01T14:01:57;5.05;;;3.25;;
38208;SDS011;24016;52.102;11.584;2023-03-01T14:04:28;6.05;;;3.60;;
38208;SDS011;24016;52.102;11.584;2023-03-01T14:07:13;8.07;;;3.85;;
38208;SDS011;24016;52.102;11.584;2023-03-01T14:09:47;4.95;;;3.50;;
38208;SDS011;24016;52.102;11.584;2023-03-01T14:12:26;6.15;;;3.40;;
38208;SDS011;24016;52.102;11.584;2023-03-01T14:20:25;7.32;;;3.95;;
38208;SDS011;24016;52.102;11.584;2023-03-01T14:22:55;5.60;;;3.88;;
38208;SDS011;24016;52.102;11.584;2023-03-01T14:25:29;6.32;;;3.78;;
38208;SDS011;24016;52.102;11.584;2023-03-01T14:28:01;6.40;;;3.60;;
38208;SDS011;24016;52.102;11.584;2023-03-01T14:30:41;9.13;;;4.43;;
38208;SDS011;24016;52.102;11.584;2023-03-01T14:33:25;5.40;;;3.33;;
38208;SDS011;24016;52.102;11.584;2023-03-01T14:36:08;7.00;;;3.80;;
38208;SDS011;24016;52.102;11.584;2023-03-01T14:38:40;6.10;;;3.95;;
38208;SDS011;24016;52.102;11.584;2023-03-01T14:41:11;5.80;;;3.97;;
38208;SDS011;24016;52.102;11.584;2023-03-01T14:43:44;6.43;;;3.83;;
38208;SDS011;24016;52.102;11.584;2023-03-01T14:49:03;5.63;;;3.92;;
38208;SDS011;24016;52.102;11.584;2023-03-01T14:51:36;6.82;;;3.72;;
38208;SDS011;24016;52.102;11.584;2023-03-01T14:54:02;6.13;;;3.85;;
38208;SDS011;24016;52.102;11.584;2023-03-01T14:56:37;6.32;;;3.50;;
38208;SDS011;24016;52.102;11.584;2023-03-01T14:59:10;6.68;;;3.72;;
38208;SDS011;24016;52.102;11.584;2023-03-01T15:01:36;7.20;;;3.63;;
38208;SDS011;24016;52.102;11.584;2023-03-01T15:04:02;6.45;;;3.13;;
38208;SDS011;24016;52.102;11.584;2023-03-01T15:06:27;5.85;;;3.50;;
38208;SDS011;24016;52.102;11.584;2023-03-01T15:08:53;6.47;;;3.80;;
38208;SDS011;24016;52.102;11.584;2023-03-01T15:11:22;6.68;;;3.90;;
38208;SDS011;24016;52.102;11.584;2023-03-01T15:13:55;7.97;;;3.58;;
38208;SDS011;24016;52.102;11.584;2023-03-01T15:16:23;5.82;;;3.88;;
38208;SDS011;24016;52.102;11.584;2023-03-01T15:18:52;5.93;;;3.40;;
38208;SDS011;24016;52.102;11.584;2023-03-01T15:21:25;5.78;;;3.40;;
38208;SDS011;24016;52.102;11.584;2023-03-01T15:24:07;4.22;;;2.95;;
38208;SDS011;24016;52.102;11.584;2023-03-01T15:26:44;6.32;;;3.08;;
38208;SDS011;24016;52.102;11.584;2023-03-01T15:29:23;8.63;;;3.25;;
38208;SDS011;24016;52.102;11.584;2023-03-01T15:31:59;5.53;;;3.17;;
38208;SDS011;24016;52.102;11.584;2023-03-01T15:34:29;5.82;;;2.97;;
38208;SDS011;24016;52.102;11.584;2023-03-01T15:37:02;6.30;;;3.50;;
38208;SDS011;24016;52.102;11.584;2023-03-01T15:39:32;6.05;;;3.45;;
38208;SDS011;24016;52.102;11.584;2023-03-01T15:42:02;5.30;;;3.25;;
38208;SDS011;24016;52.102;11.584;2023-03-01T15:44:30;7.55;;;3.53;;
38208;SDS011;24016;52.102;11.584;2023-03-01T15:46:58;5.55;;;3.03;;
38208;SDS011;24016;52.102;11.584;2023-03-01T15:49:33;5.13;;;3.17;;
38208;SDS011;24016;52.102;11.584;2023-03-01T15:52:02;5.30;;;3.08;;
38208;SDS011;24016;52.102;11.584;2023-03-01T15:54:29;6.53;;;2.92;;
38208;SDS011;24016;52.102;11.584;2023-03-01T15:56:54;5.45;;;3.17;;
38208;SDS011;24016;52.102;11.584;2023-03-01T15:59:20;7.20;;;3.08;;
38208;SDS011;24016;52.102;11.584;2023-03-01T16:01:47;6.28;;;3.00;;
38208;SDS011;24016;52.102;11.584;2023-03-01T16:04:14;4.40;;;2.97;;
38208;SDS011;24016;52.102;11.584;2023-03-01T16:06:49;4.35;;;2.88;;
38208;SDS011;24016;52.102;11.584;2023-03-01T16:09:19;4.43;;;2.80;;
38208;SDS011;24016;52.102;11.584;2023-03-01T16:11:51;5.15;;;3.00;;
38208;SDS011;24016;52.102;11.584;2023-03-01T16:14:18;4.45;;;2.65;;
38208;SDS011;24016;52.102;11.584;2023-03-01T16:16:45;5.25;;;2.90;;